sensor_id;sensor_type;location;lat;lon;timestamp;P1;durP1;ratioP1;P2;durP2;ratioP2
65375;SDS011;51976;47.332;9.404;2023-11-18T00:01:48;1.42;;;0.52;;
65375;SDS011;51976;47.332;9.404;2023-11-18T00:04:13;1.85;;;0.93;;
65375;SDS011;51976;47.332;9.404;2023-11-18T00:06:43;1.10;;;0.90;;
65375;SDS011;51976;47.332;9.404;2023-11-18T00:09:12;0.80;;;0.50;;
65375;SDS011;51976;47.332;9.404;2023-11-18T00:11:38;2.25;;;0.60;;
65375;SDS011;51976;47.332;9.404;2023-11-18T00:14:04;0.88;;;0.52;;
65375;SDS011;51976;47.332;9.404;2023-11-18T00:16:30;0.80;;;0.50;;
65375;SDS011;51976;47.332;9.404;2023-11-18T00:18:56;1.05;;;0.40;;
65375;SDS011;51976;47.332;9.404;2023-11-18T00:21:24;1.00;;;0.20;;
65375;SDS011;51976;47.332;9.404;2023-11-18T00:23:49;1.35;;;0.30;;
65375;SDS011;51976;47.332;9.404;2023-11-18T00:26:14;0.65;;;0.30;;
65375;SDS011;51976;47.332;9.404;2023-11-18T00:28:40;0.50;;;0.22;;
65375;SDS011;51976;47.332;9.404;2023-11-18T00:31:05;1.02;;;0.40;;
65375;SDS011;51976;47.332;9.404;2023-11-18T00:33:31;0.28;;;0.15;;
65375;SDS011;51976;47.332;9.404;2023-11-18T00:35:57;0.30;;;0.20;;
65375;SDS011;51976;47.332;9.404;2023-11-18T00:38:22;0.88;;;0.30;;
65375;SDS011;51976;47.332;9.404;2023-11-18T00:40:48;0.20;;;0.10;;
65375;SDS011;51976;47.332;9.404;2023-11-18T00:43:13;0.25;;;0.15;;
65375;SDS011;51976;47.332;9.404;2023-11-18T00:45:38;0.95;;;0.20;;
65375;SDS011;51976;47.332;9.404;2023-11-18T00:48:05;0.50;;;0.10;;
65375;SDS011;51976;47.332;9.404;2023-11-18T00:50:31;1.65;;;0.20;;
65375;SDS011;51976;47.332;9.404;2023-11-18T00:52:58;0.50;;;0.15;;
65375;SDS011;51976;47.332;9.404;2023-11-18T00:55:23;0.30;;;0.20;;
65375;SDS011;51976;47.332;9.404;2023-11-18T00:57:49;0.40;;;0.20;;
65375;SDS011;51976;47.332;9.404;2023-11-18T01:00:14;1.05;;;0.10;;
65375;SDS011;51976;47.332;9.404;2023-11-18T01:02:47;0.98;;;0.40;;
65375;SDS011;51976;47.332;9.404;2023-11-18T01:05:14;1.52;;;0.70;;
65375;SDS011;51976;47.332;9.404;2023-11-18T01:07:40;1.63;;;0.63;;
65375;SDS011;51976;47.332;9.404;2023-11-18T01:10:06;1.00;;;0.55;;
65375;SDS011;51976;47.332;9.404;2023-11-18T01:12:32;0.70;;;0.50;;
65375;SDS011;51976;47.332;9.404;2023-11-18T01:14:58;1.98;;;0.65;;
65375;SDS011;51976;47.332;9.404;2023-11-18T01:17:23;1.25;;;0.70;;
65375;SDS011;51976;47.332;9.404;2023-11-18T01:19:49;1.75;;;0.68;;
65375;SDS011;51976;47.332;9.404;2023-11-18T01:22:14;1.42;;;0.40;;
65375;SDS011;51976;47.332;9.404;2023-11-18T01:24:40;0.60;;;0.40;;
65375;SDS011;51976;47.332;9.404;2023-11-18T01:27:06;0.75;;;0.50;;
65375;SDS011;51976;47.332;9.404;2023-11-18T01:29:34;1.23;;;0.40;;
65375;SDS011;51976;47.332;9.404;2023-11-18T01:32:00;0.55;;;0.30;;
65375;SDS011;51976;47.332;9.404;2023-11-18T01:34:27;0.75;;;0.50;;
65375;SDS011;51976;47.332;9.404;2023-11-18T01:36:53;0.43;;;0.25;;
65375;SDS011;51976;47.332;9.404;2023-11-18T01:39:18;0.63;;;0.22;;
65375;SDS011;51976;47.332;9.404;2023-11-18T01:41:44;0.50;;;0.22;;
65375;SDS011;51976;47.332;9.404;2023-11-18T01:44:10;1.17;;;0.40;;
65375;SDS011;51976;47.332;9.404;2023-11-18T01:46:38;0.40;;;0.20;;
65375;SDS011;51976;47.332;9.404;2023-11-18T01:49:05;0.43;;;0.28;;
65375;SDS011;51976;47.332;9.404;2023-11-18T01:51:32;1.77;;;0.30;;
65375;SDS011;51976;47.332;9.404;2023-11-18T01:54:00;0.30;;;0.30;;
65375;SDS011;51976;47.332;9.404;2023-11-18T01:56:27;0.30;;;0.20;;
65375;SDS011;51976;47.332;9.404;2023-11-18T01:58:53;1.83;;;0.30;;
65375;SDS011;51976;47.332;9.404;2023-11-18T02:01:19;0.35;;;0.20;;
65375;SDS011;51976;47.332;9.404;2023-11-18T02:03:45;0.70;;;0.25;;
65375;SDS011;51976;47.332;9.404;2023-11-18T02:06:12;0.20;;;0.20;;
65375;SDS011;51976;47.332;9.404;2023-11-18T02:08:39;0.47;;;0.20;;
65375;SDS011;51976;47.332;9.404;2023-11-18T02:11:20;0.38;;;0.20;;
65375;SDS011;51976;47.332;9.404;2023-11-18T02:13:53;5.93;;;0.40;;
65375;SDS011;51976;47.332;9.404;2023-11-18T02:16:20;0.63;;;0.22;;
65375;SDS011;51976;47.332;9.404;2023-11-18T02:18:47;1.27;;;0.50;;
65375;SDS011;51976;47.332;9.404;2023-11-18T02:21:14;0.40;;;0.20;;
65375;SDS011;51976;47.332;9.404;2023-11-18T02:23:41;1.02;;;0.30;;
65375;SDS011;51976;47.332;9.404;2023-11-18T02:26:07;0.60;;;0.40;;
65375;SDS011;51976;47.332;9.404;2023-11-18T02:28:34;0.60;;;0.25;;
65375;SDS011;51976;47.332;9.404;2023-11-18T02:31:13;0.40;;;0.10;;
65375;SDS011;51976;47.332;9.404;2023-11-18T02:34:00;0.47;;;0.30;;
65375;SDS011;51976;47.332;9.404;2023-11-18T02:36:31;0.73;;;0.10;;
65375;SDS011;51976;47.332;9.404;2023-11-18T02:39:04;0.50;;;0.20;;
65375;SDS011;51976;47.332;9.404;2023-11-18T02:41:36;0.35;;;0.17;;
65375;SDS011;51976;47.332;9.404;2023-11-18T02:44:04;0.28;;;0.10;;
65375;SDS011;51976;47.332;9.404;2023-11-18T02:46:36;1.10;;;0.63;;
65375;SDS011;51976;47.332;9.404;2023-11-18T02:49:01;0.50;;;0.30;;
65375;SDS011;51976;47.332;9.404;2023-11-18T02:51:28;0.50;;;0.20;;
65375;SDS011;51976;47.332;9.404;2023-11-18T02:53:56;1.25;;;0.20;;
65375;SDS011;51976;47.332;9.404;2023-11-18T02:56:22;0.50;;;0.20;;
65375;SDS011;51976;47.332;9.404;2023-11-18T02:58:47;1.08;;;0.30;;
65375;SDS011;51976;47.332;9.404;2023-11-18T03:01:13;1.65;;;0.30;;
65375;SDS011;51976;47.332;9.404;2023-11-18T03:03:38;0.65;;;0.30;;
65375;SDS011;51976;47.332;9.404;2023-11-18T03:06:03;0.63;;;0.35;;
65375;SDS011;51976;47.332;9.404;2023-11-18T03:08:31;0.95;;;0.57;;
65375;SDS011;51976;47.332;9.404;2023-11-18T03:10:56;0.68;;;0.40;;
65375;SDS011;51976;47.332;9.404;2023-11-18T03:13:23;0.73;;;0.40;;
65375;SDS011;51976;47.332;9.404;2023-11-18T03:15:49;0.95;;;0.40;;
65375;SDS011;51976;47.332;9.404;2023-11-18T03:18:15;0.93;;;0.43;;
65375;SDS011;51976;47.332;9.404;2023-11-18T03:20:41;0.57;;;0.22;;
65375;SDS011;51976;47.332;9.404;2023-11-18T03:23:06;0.50;;;0.30;;
65375;SDS011;51976;47.332;9.404;2023-11-18T03:25:34;0.40;;;0.20;;
65375;SDS011;51976;47.332;9.404;2023-11-18T03:28:00;0.55;;;0.30;;
65375;SDS011;51976;47.332;9.404;2023-11-18T03:30:25;0.43;;;0.20;;
65375;SDS011;51976;47.332;9.404;2023-11-18T03:32:50;0.50;;;0.20;;
65375;SDS011;51976;47.332;9.404;2023-11-18T03:35:16;0.55;;;0.28;;
65375;SDS011;51976;47.332;9.404;2023-11-18T03:37:41;0.50;;;0.30;;
65375;SDS011;51976;47.332;9.404;2023-11-18T03:40:07;0.50;;;0.20;;
65375;SDS011;51976;47.332;9.404;2023-11-18T03:42:34;0.55;;;0.30;;
65375;SDS011;51976;47.332;9.404;2023-11-18T03:45:00;0.50;;;0.20;;
65375;SDS011;51976;47.332;9.404;2023-11-18T03:47:26;1.48;;;0.10;;
65375;SDS011;51976;47.332;9.404;2023-11-18T03:49:51;0.57;;;0.20;;
65375;SDS011;51976;47.332;9.404;2023-11-18T03:52:19;4.07;;;0.20;;
65375;SDS011;51976;47.332;9.404;2023-11-18T03:54:44;0.30;;;0.10;;
65375;SDS011;51976;47.332;9.404;2023-11-18T03:57:10;0.43;;;0.20;;
65375;SDS011;51976;47.332;9.404;2023-11-18T03:59:35;3.55;;;0.70;;
65375;SDS011;51976;47.332;9.404;2023-11-18T04:02:00;0.57;;;0.40;;
65375;SDS011;51976;47.332;9.404;2023-11-18T04:04:26;0.55;;;0.30;;
65375;SDS011;51976;47.332;9.404;2023-11-18T04:06:52;1.92;;;0.40;;
65375;SDS011;51976;47.332;9.404;2023-11-18T04:09:17;0.57;;;0.30;;
65375;SDS011;51976;47.332;9.404;2023-11-18T04:11:43;1.42;;;0.40;;
65375;SDS011;51976;47.332;9.404;2023-11-18T04:14:10;0.82;;;0.43;;
65375;SDS011;51976;47.332;9.404;2023-11-18T04:16:37;0.50;;;0.30;;
65375;SDS011;51976;47.332;9.404;2023-11-18T04:19:03;0.57;;;0.30;;
65375;SDS011;51976;47.332;9.404;2023-11-18T04:21:28;1.08;;;0.40;;
65375;SDS011;51976;47.332;9.404;2023-11-18T04:23:54;1.15;;;0.52;;
65375;SDS011;51976;47.332;9.404;2023-11-18T04:26:19;1.52;;;0.40;;
65375;SDS011;51976;47.332;9.404;2023-11-18T04:28:45;1.08;;;0.50;;
65375;SDS011;51976;47.332;9.404;2023-11-18T04:31:10;0.77;;;0.40;;
65375;SDS011;51976;47.332;9.404;2023-11-18T04:33:36;0.73;;;0.32;;
65375;SDS011;51976;47.332;9.404;2023-11-18T04:36:01;0.40;;;0.30;;
65375;SDS011;51976;47.332;9.404;2023-11-18T04:38:28;0.38;;;0.20;;
65375;SDS011;51976;47.332;9.404;2023-11-18T04:40:53;1.08;;;0.45;;
65375;SDS011;51976;47.332;9.404;2023-11-18T04:43:20;0.77;;;0.35;;
65375;SDS011;51976;47.332;9.404;2023-11-18T04:45:46;0.80;;;0.40;;
65375;SDS011;51976;47.332;9.404;2023-11-18T04:48:11;2.05;;;0.30;;
65375;SDS011;51976;47.332;9.404;2023-11-18T04:50:39;2.90;;;0.70;;
65375;SDS011;51976;47.332;9.404;2023-11-18T04:53:04;1.10;;;0.60;;
65375;SDS011;51976;47.332;9.404;2023-11-18T04:55:33;0.98;;;0.52;;
65375;SDS011;51976;47.332;9.404;2023-11-18T04:57:59;0.75;;;0.40;;
65375;SDS011;51976;47.332;9.404;2023-11-18T05:00:25;1.77;;;0.60;;
65375;SDS011;51976;47.332;9.404;2023-11-18T05:02:50;1.15;;;0.47;;
65375;SDS011;51976;47.332;9.404;2023-11-18T05:05:16;3.55;;;0.52;;
65375;SDS011;51976;47.332;9.404;2023-11-18T05:07:41;2.60;;;0.70;;
65375;SDS011;51976;47.332;9.404;2023-11-18T05:10:08;0.90;;;0.40;;
65375;SDS011;51976;47.332;9.404;2023-11-18T05:12:35;1.35;;;0.50;;
65375;SDS011;51976;47.332;9.404;2023-11-18T05:15:01;1.65;;;0.68;;
65375;SDS011;51976;47.332;9.404;2023-11-18T05:17:29;1.58;;;0.75;;
65375;SDS011;51976;47.332;9.404;2023-11-18T05:19:55;1.55;;;0.70;;
65375;SDS011;51976;47.332;9.404;2023-11-18T05:22:20;2.30;;;1.10;;
65375;SDS011;51976;47.332;9.404;2023-11-18T05:24:46;2.17;;;0.93;;
65375;SDS011;51976;47.332;9.404;2023-11-18T05:27:12;1.17;;;0.60;;
65375;SDS011;51976;47.332;9.404;2023-11-18T05:29:38;1.33;;;0.65;;
65375;SDS011;51976;47.332;9.404;2023-11-18T05:32:06;1.73;;;0.90;;
65375;SDS011;51976;47.332;9.404;2023-11-18T05:34:32;1.88;;;0.90;;
65375;SDS011;51976;47.332;9.404;2023-11-18T05:36:58;2.25;;;0.70;;
65375;SDS011;51976;47.332;9.404;2023-11-18T05:39:24;1.88;;;0.80;;
65375;SDS011;51976;47.332;9.404;2023-11-18T05:41:52;1.88;;;0.88;;
65375;SDS011;51976;47.332;9.404;2023-11-18T05:44:21;0.80;;;0.60;;
65375;SDS011;51976;47.332;9.404;2023-11-18T05:46:55;1.30;;;0.63;;
65375;SDS011;51976;47.332;9.404;2023-11-18T05:49:22;1.25;;;0.70;;
65375;SDS011;51976;47.332;9.404;2023-11-18T05:51:47;1.20;;;0.60;;
65375;SDS011;51976;47.332;9.404;2023-11-18T05:54:13;1.05;;;0.55;;
65375;SDS011;51976;47.332;9.404;2023-11-18T05:56:38;1.13;;;0.60;;
65375;SDS011;51976;47.332;9.404;2023-11-18T05:59:03;1.23;;;0.70;;
65375;SDS011;51976;47.332;9.404;2023-11-18T06:01:29;1.40;;;0.60;;
65375;SDS011;51976;47.332;9.404;2023-11-18T06:03:55;1.63;;;0.80;;
65375;SDS011;51976;47.332;9.404;2023-11-18T06:06:22;1.83;;;0.70;;
65375;SDS011;51976;47.332;9.404;2023-11-18T06:08:48;1.55;;;0.60;;
65375;SDS011;51976;47.332;9.404;2023-11-18T06:11:14;2.53;;;0.85;;
65375;SDS011;51976;47.332;9.404;2023-11-18T06:13:44;1.85;;;0.80;;
65375;SDS011;51976;47.332;9.404;2023-11-18T06:16:14;1.35;;;0.80;;
65375;SDS011;51976;47.332;9.404;2023-11-18T06:18:50;1.13;;;0.70;;
65375;SDS011;51976;47.332;9.404;2023-11-18T06:21:18;2.13;;;0.55;;
65375;SDS011;51976;47.332;9.404;2023-11-18T06:23:45;1.20;;;0.70;;
65375;SDS011;51976;47.332;9.404;2023-11-18T06:26:12;1.50;;;1.00;;
65375;SDS011;51976;47.332;9.404;2023-11-18T06:28:38;1.92;;;1.17;;
65375;SDS011;51976;47.332;9.404;2023-11-18T06:31:05;3.83;;;1.20;;
65375;SDS011;51976;47.332;9.404;2023-11-18T06:33:35;2.20;;;1.08;;
65375;SDS011;51976;47.332;9.404;2023-11-18T06:36:02;2.05;;;1.30;;
65375;SDS011;51976;47.332;9.404;2023-11-18T06:38:28;4.80;;;2.58;;
65375;SDS011;51976;47.332;9.404;2023-11-18T06:40:55;2.05;;;0.90;;
65375;SDS011;51976;47.332;9.404;2023-11-18T06:43:23;1.50;;;0.85;;
65375;SDS011;51976;47.332;9.404;2023-11-18T06:45:49;1.25;;;0.90;;
65375;SDS011;51976;47.332;9.404;2023-11-18T06:48:15;4.25;;;1.45;;
65375;SDS011;51976;47.332;9.404;2023-11-18T06:50:45;2.20;;;1.10;;
65375;SDS011;51976;47.332;9.404;2023-11-18T06:53:10;5.00;;;2.13;;
65375;SDS011;51976;47.332;9.404;2023-11-18T06:55:36;6.35;;;2.45;;
65375;SDS011;51976;47.332;9.404;2023-11-18T06:58:02;3.30;;;2.28;;
65375;SDS011;51976;47.332;9.404;2023-11-18T07:00:27;4.00;;;1.98;;
65375;SDS011;51976;47.332;9.404;2023-11-18T07:02:54;6.10;;;2.17;;
65375;SDS011;51976;47.332;9.404;2023-11-18T07:05:19;4.15;;;1.90;;
65375;SDS011;51976;47.332;9.404;2023-11-18T07:07:49;2.28;;;1.42;;
65375;SDS011;51976;47.332;9.404;2023-11-18T07:10:17;3.33;;;1.58;;
65375;SDS011;51976;47.332;9.404;2023-11-18T07:12:45;3.03;;;1.45;;
65375;SDS011;51976;47.332;9.404;2023-11-18T07:15:12;2.58;;;1.55;;
65375;SDS011;51976;47.332;9.404;2023-11-18T07:17:38;6.45;;;1.70;;
65375;SDS011;51976;47.332;9.404;2023-11-18T07:20:04;3.63;;;2.17;;
65375;SDS011;51976;47.332;9.404;2023-11-18T07:22:30;6.60;;;1.92;;
65375;SDS011;51976;47.332;9.404;2023-11-18T07:24:56;3.53;;;2.20;;
65375;SDS011;51976;47.332;9.404;2023-11-18T07:27:22;3.63;;;2.20;;
65375;SDS011;51976;47.332;9.404;2023-11-18T07:29:48;3.78;;;2.28;;
65375;SDS011;51976;47.332;9.404;2023-11-18T07:32:13;4.00;;;2.45;;
65375;SDS011;51976;47.332;9.404;2023-11-18T07:34:39;3.78;;;1.90;;
65375;SDS011;51976;47.332;9.404;2023-11-18T07:37:06;4.45;;;2.47;;
65375;SDS011;51976;47.332;9.404;2023-11-18T07:39:33;4.80;;;2.60;;
65375;SDS011;51976;47.332;9.404;2023-11-18T07:42:11;4.05;;;2.65;;
65375;SDS011;51976;47.332;9.404;2023-11-18T07:44:38;3.45;;;2.35;;
65375;SDS011;51976;47.332;9.404;2023-11-18T07:47:04;3.88;;;2.33;;
65375;SDS011;51976;47.332;9.404;2023-11-18T07:49:30;3.22;;;2.13;;
65375;SDS011;51976;47.332;9.404;2023-11-18T07:51:56;3.40;;;2.33;;
65375;SDS011;51976;47.332;9.404;2023-11-18T07:54:22;4.75;;;2.30;;
65375;SDS011;51976;47.332;9.404;2023-11-18T07:56:48;3.25;;;2.10;;
65375;SDS011;51976;47.332;9.404;2023-11-18T07:59:14;3.05;;;1.95;;
65375;SDS011;51976;47.332;9.404;2023-11-18T08:01:43;4.95;;;2.30;;
65375;SDS011;51976;47.332;9.404;2023-11-18T08:04:12;10.30;;;3.17;;
65375;SDS011;51976;47.332;9.404;2023-11-18T08:06:39;4.78;;;2.60;;
65375;SDS011;51976;47.332;9.404;2023-11-18T08:09:05;4.10;;;2.58;;
65375;SDS011;51976;47.332;9.404;2023-11-18T08:11:35;4.40;;;2.88;;
65375;SDS011;51976;47.332;9.404;2023-11-18T08:14:01;4.82;;;2.30;;
65375;SDS011;51976;47.332;9.404;2023-11-18T08:16:27;5.28;;;3.08;;
65375;SDS011;51976;47.332;9.404;2023-11-18T08:18:53;4.80;;;2.63;;
65375;SDS011;51976;47.332;9.404;2023-11-18T08:21:19;3.67;;;2.22;;
65375;SDS011;51976;47.332;9.404;2023-11-18T08:23:44;4.28;;;2.53;;
65375;SDS011;51976;47.332;9.404;2023-11-18T08:26:11;4.75;;;2.67;;
65375;SDS011;51976;47.332;9.404;2023-11-18T08:28:36;4.95;;;2.47;;
65375;SDS011;51976;47.332;9.404;2023-11-18T08:31:02;7.30;;;2.85;;
65375;SDS011;51976;47.332;9.404;2023-11-18T08:33:27;6.25;;;2.92;;
65375;SDS011;51976;47.332;9.404;2023-11-18T08:35:53;4.55;;;2.72;;
65375;SDS011;51976;47.332;9.404;2023-11-18T08:38:19;3.78;;;2.45;;
65375;SDS011;51976;47.332;9.404;2023-11-18T08:40:44;3.90;;;2.60;;
65375;SDS011;51976;47.332;9.404;2023-11-18T08:43:13;5.13;;;2.40;;
65375;SDS011;51976;47.332;9.404;2023-11-18T08:45:39;2.25;;;1.40;;
65375;SDS011;51976;47.332;9.404;2023-11-18T08:48:06;2.60;;;1.30;;
65375;SDS011;51976;47.332;9.404;2023-11-18T08:50:32;2.58;;;1.35;;
65375;SDS011;51976;47.332;9.404;2023-11-18T08:52:58;2.10;;;1.33;;
65375;SDS011;51976;47.332;9.404;2023-11-18T08:55:24;3.22;;;1.20;;
65375;SDS011;51976;47.332;9.404;2023-11-18T08:58:04;1.88;;;1.20;;
65375;SDS011;51976;47.332;9.404;2023-11-18T09:00:47;4.75;;;1.33;;
65375;SDS011;51976;47.332;9.404;2023-11-18T09:03:26;1.52;;;1.02;;
65375;SDS011;51976;47.332;9.404;2023-11-18T09:06:01;3.25;;;1.67;;
65375;SDS011;51976;47.332;9.404;2023-11-18T09:08:32;3.22;;;1.55;;
65375;SDS011;51976;47.332;9.404;2023-11-18T09:11:04;5.03;;;2.08;;
65375;SDS011;51976;47.332;9.404;2023-11-18T09:13:31;5.18;;;2.35;;
65375;SDS011;51976;47.332;9.404;2023-11-18T09:15:59;3.03;;;1.70;;
65375;SDS011;51976;47.332;9.404;2023-11-18T09:18:27;3.05;;;1.88;;
65375;SDS011;51976;47.332;9.404;2023-11-18T09:20:53;4.50;;;2.10;;
65375;SDS011;51976;47.332;9.404;2023-11-18T09:23:24;3.17;;;1.35;;
65375;SDS011;51976;47.332;9.404;2023-11-18T09:25:52;2.53;;;1.27;;
65375;SDS011;51976;47.332;9.404;2023-11-18T09:28:18;3.70;;;1.60;;
65375;SDS011;51976;47.332;9.404;2023-11-18T09:30:45;4.65;;;1.88;;
65375;SDS011;51976;47.332;9.404;2023-11-18T09:33:19;3.78;;;2.20;;
65375;SDS011;51976;47.332;9.404;2023-11-18T09:35:53;4.38;;;2.20;;
65375;SDS011;51976;47.332;9.404;2023-11-18T09:38:30;3.95;;;1.70;;
65375;SDS011;51976;47.332;9.404;2023-11-18T09:40:57;7.68;;;3.25;;
65375;SDS011;51976;47.332;9.404;2023-11-18T09:43:28;13.27;;;10.43;;
65375;SDS011;51976;47.332;9.404;2023-11-18T09:45:57;6.05;;;2.60;;
65375;SDS011;51976;47.332;9.404;2023-11-18T09:48:33;4.40;;;1.70;;
65375;SDS011;51976;47.332;9.404;2023-11-18T09:51:05;3.10;;;1.60;;
65375;SDS011;51976;47.332;9.404;2023-11-18T09:53:32;1.80;;;0.80;;
65375;SDS011;51976;47.332;9.404;2023-11-18T09:56:07;2.75;;;1.10;;
65375;SDS011;51976;47.332;9.404;2023-11-18T09:58:44;1.50;;;0.65;;
65375;SDS011;51976;47.332;9.404;2023-11-18T10:01:14;1.83;;;0.90;;
65375;SDS011;51976;47.332;9.404;2023-11-18T10:03:43;1.40;;;0.88;;
65375;SDS011;51976;47.332;9.404;2023-11-18T10:06:10;2.28;;;1.00;;
65375;SDS011;51976;47.332;9.404;2023-11-18T10:08:39;3.47;;;1.13;;
65375;SDS011;51976;47.332;9.404;2023-11-18T10:11:05;2.15;;;1.45;;
65375;SDS011;51976;47.332;9.404;2023-11-18T10:13:34;1.92;;;1.27;;
65375;SDS011;51976;47.332;9.404;2023-11-18T10:16:05;3.00;;;1.58;;
65375;SDS011;51976;47.332;9.404;2023-11-18T10:18:32;2.30;;;1.30;;
65375;SDS011;51976;47.332;9.404;2023-11-18T10:21:01;2.40;;;1.10;;
65375;SDS011;51976;47.332;9.404;2023-11-18T10:23:29;2.35;;;0.93;;
65375;SDS011;51976;47.332;9.404;2023-11-18T10:25:58;2.60;;;0.88;;
65375;SDS011;51976;47.332;9.404;2023-11-18T10:28:29;1.65;;;1.08;;
65375;SDS011;51976;47.332;9.404;2023-11-18T10:31:00;2.38;;;0.98;;
65375;SDS011;51976;47.332;9.404;2023-11-18T10:33:28;1.60;;;0.73;;
65375;SDS011;51976;47.332;9.404;2023-11-18T10:35:56;1.67;;;0.93;;
65375;SDS011;51976;47.332;9.404;2023-11-18T10:38:22;3.38;;;1.48;;
65375;SDS011;51976;47.332;9.404;2023-11-18T10:40:52;2.50;;;1.42;;
65375;SDS011;51976;47.332;9.404;2023-11-18T10:43:20;2.08;;;1.10;;
65375;SDS011;51976;47.332;9.404;2023-11-18T10:45:49;3.45;;;1.10;;
65375;SDS011;51976;47.332;9.404;2023-11-18T10:48:19;1.52;;;0.90;;
65375;SDS011;51976;47.332;9.404;2023-11-18T10:50:46;1.85;;;0.77;;
65375;SDS011;51976;47.332;9.404;2023-11-18T10:53:14;0.90;;;0.60;;
65375;SDS011;51976;47.332;9.404;2023-11-18T10:55:41;1.98;;;0.90;;
65375;SDS011;51976;47.332;9.404;2023-11-18T10:58:08;1.88;;;0.80;;
65375;SDS011;51976;47.332;9.404;2023-11-18T11:00:46;1.33;;;0.85;;
65375;SDS011;51976;47.332;9.404;2023-11-18T11:03:13;1.48;;;0.77;;
65375;SDS011;51976;47.332;9.404;2023-11-18T11:05:39;2.70;;;0.85;;
65375;SDS011;51976;47.332;9.404;2023-11-18T11:08:07;2.47;;;0.80;;
65375;SDS011;51976;47.332;9.404;2023-11-18T11:10:33;2.88;;;0.80;;
65375;SDS011;51976;47.332;9.404;2023-11-18T11:13:01;1.80;;;0.73;;
65375;SDS011;51976;47.332;9.404;2023-11-18T11:15:30;1.08;;;0.65;;
65375;SDS011;51976;47.332;9.404;2023-11-18T11:18:01;2.33;;;0.77;;
65375;SDS011;51976;47.332;9.404;2023-11-18T11:20:34;2.60;;;0.85;;
65375;SDS011;51976;47.332;9.404;2023-11-18T11:23:14;2.42;;;0.77;;
65375;SDS011;51976;47.332;9.404;2023-11-18T11:26:13;1.90;;;1.20;;
65375;SDS011;51976;47.332;9.404;2023-11-18T11:29:04;2.63;;;1.25;;
65375;SDS011;51976;47.332;9.404;2023-11-18T11:31:39;1.75;;;1.15;;
65375;SDS011;51976;47.332;9.404;2023-11-18T11:34:19;1.63;;;1.02;;
65375;SDS011;51976;47.332;9.404;2023-11-18T11:36:48;3.58;;;1.15;;
65375;SDS011;51976;47.332;9.404;2023-11-18T11:39:16;5.80;;;1.30;;
65375;SDS011;51976;47.332;9.404;2023-11-18T11:41:51;4.57;;;1.25;;
65375;SDS011;51976;47.332;9.404;2023-11-18T11:44:19;2.60;;;1.23;;
65375;SDS011;51976;47.332;9.404;2023-11-18T11:46:48;2.35;;;0.95;;
65375;SDS011;51976;47.332;9.404;2023-11-18T11:49:18;2.10;;;1.13;;
65375;SDS011;51976;47.332;9.404;2023-11-18T11:51:47;1.83;;;1.30;;
65375;SDS011;51976;47.332;9.404;2023-11-18T11:54:18;2.25;;;1.10;;
65375;SDS011;51976;47.332;9.404;2023-11-18T11:56:49;1.70;;;1.02;;
65375;SDS011;51976;47.332;9.404;2023-11-18T11:59:34;2.63;;;1.35;;
65375;SDS011;51976;47.332;9.404;2023-11-18T12:02:03;2.20;;;0.82;;
65375;SDS011;51976;47.332;9.404;2023-11-18T12:04:34;3.50;;;1.70;;
65375;SDS011;51976;47.332;9.404;2023-11-18T12:07:02;2.50;;;1.30;;
65375;SDS011;51976;47.332;9.404;2023-11-18T12:09:30;1.70;;;1.05;;
65375;SDS011;51976;47.332;9.404;2023-11-18T12:12:03;1.40;;;1.00;;
65375;SDS011;51976;47.332;9.404;2023-11-18T12:14:29;2.92;;;1.20;;
65375;SDS011;51976;47.332;9.404;2023-11-18T12:17:06;1.58;;;0.90;;
65375;SDS011;51976;47.332;9.404;2023-11-18T12:19:34;3.35;;;1.20;;
65375;SDS011;51976;47.332;9.404;2023-11-18T12:22:13;1.90;;;0.90;;
65375;SDS011;51976;47.332;9.404;2023-11-18T12:27:57;3.10;;;0.85;;
65375;SDS011;51976;47.332;9.404;2023-11-18T12:30:40;1.42;;;0.63;;
65375;SDS011;51976;47.332;9.404;2023-11-18T12:33:16;2.55;;;0.90;;
65375;SDS011;51976;47.332;9.404;2023-11-18T12:36:03;1.77;;;0.93;;
65375;SDS011;51976;47.332;9.404;2023-11-18T12:39:06;1.58;;;0.70;;
65375;SDS011;51976;47.332;9.404;2023-11-18T12:42:01;1.88;;;0.80;;
65375;SDS011;51976;47.332;9.404;2023-11-18T12:45:06;1.58;;;0.90;;
65375;SDS011;51976;47.332;9.404;2023-11-18T12:47:49;2.47;;;0.88;;
65375;SDS011;51976;47.332;9.404;2023-11-18T12:50:20;1.67;;;0.90;;
65375;SDS011;51976;47.332;9.404;2023-11-18T12:52:52;1.95;;;1.00;;
65375;SDS011;51976;47.332;9.404;2023-11-18T12:55:18;3.13;;;0.90;;
65375;SDS011;51976;47.332;9.404;2023-11-18T12:57:48;6.85;;;3.97;;
65375;SDS011;51976;47.332;9.404;2023-11-18T13:00:17;1.90;;;0.90;;
65375;SDS011;51976;47.332;9.404;2023-11-18T13:02:44;2.45;;;1.10;;
65375;SDS011;51976;47.332;9.404;2023-11-18T13:05:09;4.20;;;1.27;;
65375;SDS011;51976;47.332;9.404;2023-11-18T13:07:35;2.75;;;1.10;;
65375;SDS011;51976;47.332;9.404;2023-11-18T13:10:02;3.70;;;1.23;;
65375;SDS011;51976;47.332;9.404;2023-11-18T13:12:29;3.30;;;1.15;;
65375;SDS011;51976;47.332;9.404;2023-11-18T13:14:55;2.58;;;1.33;;
65375;SDS011;51976;47.332;9.404;2023-11-18T13:17:21;2.72;;;1.20;;
65375;SDS011;51976;47.332;9.404;2023-11-18T13:19:47;3.05;;;1.30;;
65375;SDS011;51976;47.332;9.404;2023-11-18T13:22:16;3.13;;;1.40;;
65375;SDS011;51976;47.332;9.404;2023-11-18T13:24:44;3.25;;;1.40;;
65375;SDS011;51976;47.332;9.404;2023-11-18T13:27:09;3.92;;;1.60;;
65375;SDS011;51976;47.332;9.404;2023-11-18T13:29:38;2.85;;;1.40;;
65375;SDS011;51976;47.332;9.404;2023-11-18T13:32:07;5.43;;;1.85;;
65375;SDS011;51976;47.332;9.404;2023-11-18T13:34:35;4.68;;;1.83;;
65375;SDS011;51976;47.332;9.404;2023-11-18T13:37:07;5.78;;;2.33;;
65375;SDS011;51976;47.332;9.404;2023-11-18T13:39:37;5.88;;;2.38;;
65375;SDS011;51976;47.332;9.404;2023-11-18T13:42:36;4.82;;;1.92;;
65375;SDS011;51976;47.332;9.404;2023-11-18T13:44:51;5.15;;;2.10;;
65375;SDS011;51976;47.332;9.404;2023-11-18T13:47:17;3.72;;;2.00;;
65375;SDS011;51976;47.332;9.404;2023-11-18T13:49:43;8.32;;;1.90;;
65375;SDS011;51976;47.332;9.404;2023-11-18T13:52:10;3.28;;;1.85;;
65375;SDS011;51976;47.332;9.404;2023-11-18T13:54:40;2.65;;;1.45;;
65375;SDS011;51976;47.332;9.404;2023-11-18T13:57:09;5.47;;;1.20;;
65375;SDS011;51976;47.332;9.404;2023-11-18T13:59:36;4.07;;;1.67;;
65375;SDS011;51976;47.332;9.404;2023-11-18T14:02:03;3.10;;;1.23;;
65375;SDS011;51976;47.332;9.404;2023-11-18T14:04:30;4.60;;;0.90;;
65375;SDS011;51976;47.332;9.404;2023-11-18T14:07:00;2.00;;;1.10;;
65375;SDS011;51976;47.332;9.404;2023-11-18T14:09:30;2.53;;;1.17;;
65375;SDS011;51976;47.332;9.404;2023-11-18T14:12:00;3.65;;;1.08;;
65375;SDS011;51976;47.332;9.404;2023-11-18T14:14:27;2.45;;;0.90;;
65375;SDS011;51976;47.332;9.404;2023-11-18T14:16:53;2.97;;;1.00;;
65375;SDS011;51976;47.332;9.404;2023-11-18T14:19:22;1.95;;;0.80;;
65375;SDS011;51976;47.332;9.404;2023-11-18T14:21:49;1.92;;;0.88;;
65375;SDS011;51976;47.332;9.404;2023-11-18T14:24:15;2.80;;;0.90;;
65375;SDS011;51976;47.332;9.404;2023-11-18T14:26:41;1.63;;;0.77;;
65375;SDS011;51976;47.332;9.404;2023-11-18T14:29:06;1.08;;;0.60;;
65375;SDS011;51976;47.332;9.404;2023-11-18T14:31:32;3.97;;;0.70;;
65375;SDS011;51976;47.332;9.404;2023-11-18T14:33:59;1.92;;;0.82;;
65375;SDS011;51976;47.332;9.404;2023-11-18T14:36:27;4.22;;;1.00;;
65375;SDS011;51976;47.332;9.404;2023-11-18T14:38:53;2.90;;;1.10;;
65375;SDS011;51976;47.332;9.404;2023-11-18T14:41:20;3.47;;;1.10;;
65375;SDS011;51976;47.332;9.404;2023-11-18T14:43:50;3.30;;;1.20;;
65375;SDS011;51976;47.332;9.404;2023-11-18T14:46:16;2.28;;;1.08;;
65375;SDS011;51976;47.332;9.404;2023-11-18T14:48:41;2.30;;;1.08;;
65375;SDS011;51976;47.332;9.404;2023-11-18T14:51:07;1.92;;;0.90;;
65375;SDS011;51976;47.332;9.404;2023-11-18T14:53:33;1.90;;;0.80;;
65375;SDS011;51976;47.332;9.404;2023-11-18T14:56:02;1.45;;;0.80;;
65375;SDS011;51976;47.332;9.404;2023-11-18T14:58:30;1.38;;;0.70;;